createdAt,value
2023-01-10T00:02:07.521Z,98744.16
2023-01-10T00:04:39.676Z,98760.81
2023-01-10T00:07:09.240Z,98748.31
2023-01-10T00:09:38.838Z,98746.97
2023-01-10T00:12:21.560Z,98757.66
2023-01-10T00:14:51.157Z,98751.72
2023-01-10T00:17:21.164Z,98752.56
2023-01-10T00:19:53.276Z,98757.72
2023-01-10T00:22:26.164Z,98772.31
2023-01-10T00:24:55.893Z,98769.50
2023-01-10T00:27:25.876Z,98777.25
2023-01-10T00:29:56.042Z,98786.28
2023-01-10T00:32:25.762Z,98784.69
2023-01-10T00:34:57.932Z,98793.25
2023-01-10T00:37:27.488Z,98800.25
2023-01-10T00:39:57.081Z,98796.72
2023-01-10T00:42:39.180Z,98809.44
2023-01-10T00:45:11.867Z,98809.47
2023-01-10T00:47:41.402Z,98808.66
2023-01-10T00:50:14.298Z,98820.31
2023-01-10T00:52:43.830Z,98814.59
2023-01-10T00:55:13.368Z,98821.97
2023-01-10T00:57:42.899Z,98829.38
2023-01-10T01:00:13.993Z,98837.91
2023-01-10T01:02:43.554Z,98834.97
2023-01-10T01:05:15.717Z,98846.53
2023-01-10T01:07:45.245Z,98844.47
2023-01-10T01:10:29.749Z,98849.34
2023-01-10T01:13:01.146Z,98854.34
2023-01-10T01:15:31.063Z,98856.97
2023-01-10T01:18:00.633Z,98870.72
2023-01-10T01:20:33.454Z,98873.53
2023-01-10T01:23:03.142Z,98880.13
2023-01-10T01:25:32.748Z,98895.16
2023-01-10T01:28:02.399Z,98900.59
2023-01-10T01:30:31.974Z,98903.41
2023-01-10T01:33:01.553Z,98905.25
2023-01-10T01:35:33.804Z,98910.47
2023-01-10T01:38:03.466Z,98923.47
2023-01-10T01:40:33.032Z,98932.69
2023-01-10T01:43:02.623Z,98926.34
2023-01-10T01:45:41.096Z,98933.56
2023-01-10T01:48:20.958Z,98948.97
2023-01-10T01:50:59.377Z,98949.53
2023-01-10T01:53:33.822Z,98953.59
2023-01-10T01:56:08.026Z,98958.94
2023-01-10T01:58:44.254Z,98960.31
2023-01-10T02:01:15.639Z,98964.69
2023-01-10T02:03:47.845Z,98970.16
2023-01-10T02:06:21.922Z,98968.34
2023-01-10T02:08:57.972Z,98970.88
2023-01-10T02:11:27.536Z,98971.25
2023-01-10T02:13:57.737Z,98975.03
2023-01-10T02:16:27.314Z,98983.28
2023-01-10T02:18:56.950Z,98983.28
2023-01-10T02:21:52.608Z,98981.81
2023-01-10T02:24:49.393Z,98984.28
2023-01-10T02:27:28.100Z,98987.16
2023-01-10T02:30:29.460Z,98979.28
2023-01-10T02:33:08.850Z,98992.38
2023-01-10T02:35:56.839Z,98986.00
2023-01-10T02:38:38.838Z,99000.56
2023-01-10T02:41:16.875Z,99010.25
2023-01-10T02:43:53.416Z,99011.78
2023-01-10T02:46:27.773Z,99023.84
2023-01-10T02:49:00.204Z,99031.78
2023-01-10T02:51:33.616Z,99039.44
2023-01-10T02:54:08.380Z,99035.84
2023-01-10T02:57:04.148Z,99044.59
2023-01-10T02:59:51.018Z,99049.13
2023-01-10T03:02:36.291Z,99054.13
2023-01-10T03:05:18.020Z,99069.59
2023-01-10T03:07:55.984Z,99073.25
2023-01-10T03:10:32.034Z,99083.75
2023-01-10T03:13:07.576Z,99082.81
2023-01-10T03:15:40.893Z,99084.84
2023-01-10T03:18:15.307Z,99078.03
2023-01-10T03:20:50.469Z,99099.66
2023-01-10T03:23:21.731Z,99102.13
2023-01-10T03:25:53.841Z,99106.56
2023-01-10T03:28:29.162Z,99112.97
2023-01-10T03:31:02.953Z,99121.00
2023-01-10T03:33:34.779Z,99119.69
2023-01-10T03:36:22.292Z,99129.28
2023-01-10T03:38:56.775Z,99142.06
2023-01-10T03:41:40.369Z,99149.47
2023-01-10T03:44:30.276Z,99155.53
2023-01-10T03:47:03.824Z,99159.03
2023-01-10T03:49:36.406Z,99166.59
2023-01-10T03:52:10.150Z,99171.44
2023-01-10T03:54:39.727Z,99184.78
2023-01-10T03:57:09.651Z,99180.16
2023-01-10T03:59:39.263Z,99184.31
2023-01-10T04:02:09.065Z,99191.63
2023-01-10T04:04:38.617Z,99193.03
2023-01-10T04:07:10.850Z,99197.97
2023-01-10T04:09:40.770Z,99195.34
2023-01-10T04:12:10.500Z,99202.00
2023-01-10T04:14:40.116Z,99206.00
2023-01-10T04:17:09.708Z,99205.41
2023-01-10T04:19:39.230Z,99210.06
2023-01-10T04:22:11.752Z,99217.13
2023-01-10T04:24:41.770Z,99229.97
2023-01-10T04:27:11.330Z,99227.63
2023-01-10T04:29:40.904Z,99239.44
2023-01-10T04:32:10.573Z,99240.25
2023-01-10T04:34:40.427Z,99241.78
2023-01-10T04:37:12.617Z,99248.06
2023-01-10T04:39:42.225Z,99249.47
2023-01-10T04:42:11.983Z,99247.31
2023-01-10T04:44:41.535Z,99257.94
2023-01-10T04:47:11.233Z,99255.97
2023-01-10T04:49:40.796Z,99260.63
2023-01-10T04:52:13.285Z,99254.63
2023-01-10T04:54:42.879Z,99265.94
2023-01-10T04:57:12.537Z,99267.25
2023-01-10T04:59:42.108Z,99288.84
2023-01-10T05:02:11.809Z,99284.50
2023-01-10T05:04:41.400Z,99285.31
2023-01-10T05:07:13.588Z,99285.19
2023-01-10T05:09:43.656Z,99285.19
2023-01-10T05:12:13.237Z,99300.41
2023-01-10T05:14:42.756Z,99311.00
2023-01-10T05:17:12.311Z,99313.50
2023-01-10T05:19:41.846Z,99317.88
2023-01-10T05:22:14.575Z,99324.94
2023-01-10T05:24:44.189Z,99325.78
2023-01-10T05:27:13.866Z,99328.72
2023-01-10T05:29:43.508Z,99331.09
2023-01-10T05:32:13.163Z,99335.63
2023-01-10T05:34:42.764Z,99332.66
2023-01-10T05:37:14.897Z,99335.69
2023-01-10T05:39:44.425Z,99337.63
2023-01-10T05:42:13.984Z,99340.13
2023-01-10T05:44:43.516Z,99335.91
2023-01-10T05:47:13.088Z,99339.09
2023-01-10T05:49:42.636Z,99346.97
2023-01-10T05:52:14.758Z,99335.53
2023-01-10T05:54:45.227Z,99338.25
2023-01-10T05:57:15.013Z,99340.13
2023-01-10T05:59:44.671Z,99337.31
2023-01-10T06:02:14.358Z,99342.25
2023-01-10T06:04:43.970Z,99353.03
2023-01-10T06:07:16.114Z,99351.59
2023-01-10T06:09:46.755Z,99359.97
2023-01-10T06:12:18.695Z,99355.00
2023-01-10T06:14:48.612Z,99369.91
2023-01-10T06:17:18.172Z,99378.19
2023-01-10T06:19:47.805Z,99384.94
2023-01-10T06:22:19.988Z,99380.31
2023-01-10T06:24:49.569Z,99394.00
2023-01-10T06:27:19.236Z,99392.22
2023-01-10T06:29:48.840Z,99399.78
2023-01-10T06:32:18.471Z,99401.31
2023-01-10T06:34:48.048Z,99409.44
2023-01-10T06:37:20.743Z,99409.94
2023-01-10T06:39:51.341Z,99411.72
2023-01-10T06:42:20.954Z,99411.72
2023-01-10T06:44:50.453Z,99420.19
2023-01-10T06:47:20.339Z,99437.78
2023-01-10T06:49:50.149Z,99437.41
2023-01-10T06:52:22.679Z,99446.47
2023-01-10T06:54:53.212Z,99447.72
2023-01-10T06:57:22.798Z,99458.34
2023-01-10T06:59:52.388Z,99455.25
2023-01-10T07:02:22.078Z,99465.47
2023-01-10T07:04:51.841Z,99463.88
2023-01-10T07:07:24.044Z,99476.06
2023-01-10T07:09:53.655Z,99483.84
2023-01-10T07:12:23.226Z,99480.91
2023-01-10T07:14:52.781Z,99489.50
2023-01-10T07:17:22.323Z,99485.56
2023-01-10T07:19:51.907Z,99496.56
2023-01-10T07:22:24.029Z,99485.72
2023-01-10T07:24:54.705Z,99497.81
2023-01-10T07:27:24.242Z,99501.94
2023-01-10T07:29:53.816Z,99507.75
2023-01-10T07:32:23.341Z,99515.72
2023-01-10T07:34:52.946Z,99526.91
2023-01-10T07:37:25.194Z,99528.53
2023-01-10T07:39:54.748Z,99536.22
2023-01-10T07:42:24.333Z,99532.88
2023-01-10T07:44:53.867Z,99538.94
2023-01-10T07:47:23.463Z,99540.44
2023-01-10T07:49:53.049Z,99541.88
2023-01-10T07:52:25.410Z,99554.31
2023-01-10T07:54:55.441Z,99553.84
2023-01-10T07:57:24.993Z,99559.38
2023-01-10T07:59:54.553Z,99565.66
2023-01-10T08:02:24.184Z,99563.66
2023-01-10T08:04:53.829Z,99573.00
2023-01-10T08:07:26.441Z,99575.25
2023-01-10T08:09:56.031Z,99583.53
2023-01-10T08:12:26.332Z,99575.25
2023-01-10T08:14:56.535Z,99582.72
2023-01-10T08:17:26.107Z,99584.56
2023-01-10T08:19:55.714Z,99590.16
2023-01-10T08:22:27.850Z,99585.16
2023-01-10T08:24:57.416Z,99583.59
2023-01-10T08:27:26.989Z,99586.97
2023-01-10T08:29:56.551Z,99591.94
2023-01-10T08:32:26.166Z,99595.56
2023-01-10T08:34:55.720Z,99598.25
2023-01-10T08:37:28.756Z,99588.84
2023-01-10T08:39:58.355Z,99596.53
2023-01-10T08:42:27.939Z,99595.09
2023-01-10T08:45:00.326Z,99601.47
2023-01-10T08:47:31.101Z,99592.56
2023-01-10T08:50:00.649Z,99595.97
2023-01-10T08:52:33.847Z,99594.75
2023-01-10T08:55:03.379Z,99607.28
2023-01-10T08:57:32.920Z,99601.16
2023-01-10T09:00:02.469Z,99597.13
2023-01-10T09:02:32.121Z,99605.50
2023-01-10T09:05:01.709Z,99606.97
2023-01-10T09:07:33.897Z,99618.88
2023-01-10T09:10:03.445Z,99617.84
2023-01-10T09:12:45.774Z,99629.44
2023-01-10T09:15:15.523Z,99634.38
2023-01-10T09:17:45.424Z,99635.69
2023-01-10T09:20:15.294Z,99640.47
2023-01-10T09:22:47.411Z,99650.78
2023-01-10T09:25:16.961Z,99649.19
2023-01-10T09:27:46.604Z,99650.59
2023-01-10T09:30:17.120Z,99653.56
2023-01-10T09:32:46.721Z,99661.28
2023-01-10T09:35:16.305Z,99649.91
2023-01-10T09:37:49.072Z,99640.72
2023-01-10T09:40:22.204Z,99645.16
2023-01-10T09:43:05.755Z,99645.06
2023-01-10T09:45:42.155Z,99652.50
2023-01-10T09:48:19.990Z,99645.91
2023-01-10T09:51:03.201Z,99638.69
2023-01-10T09:53:39.601Z,99645.66
2023-01-10T09:56:11.618Z,99651.22
2023-01-10T09:58:41.492Z,99641.63
2023-01-10T10:01:15.678Z,99648.25
2023-01-10T10:03:52.111Z,99656.28
2023-01-10T10:06:22.310Z,99661.53
2023-01-10T10:08:55.778Z,99658.94
2023-01-10T10:11:55.822Z,99663.06
2023-01-10T10:14:42.379Z,99660.09
2023-01-10T10:17:32.388Z,99663.56
2023-01-10T10:20:26.687Z,99671.59
2023-01-10T10:23:15.473Z,99669.00
2023-01-10T10:26:02.642Z,99662.72
2023-01-10T10:28:57.175Z,99670.44
2023-01-10T10:31:39.046Z,99677.28
2023-01-10T10:34:16.700Z,99674.66
2023-01-10T10:36:51.789Z,99680.91
2023-01-10T10:39:25.062Z,99671.22
2023-01-10T10:41:58.849Z,99681.41
2023-01-10T10:44:36.549Z,99676.41
2023-01-10T10:47:12.356Z,99682.78
2023-01-10T10:49:44.948Z,99692.84
2023-01-10T10:52:22.382Z,99680.41
2023-01-10T10:54:52.046Z,99688.94
2023-01-10T10:57:27.899Z,99684.44
2023-01-10T10:59:57.607Z,99691.59
2023-01-10T11:02:29.868Z,99696.16
2023-01-10T11:05:03.467Z,99695.41
2023-01-10T11:07:36.677Z,99684.31
2023-01-10T11:10:18.325Z,99692.84
2023-01-10T11:12:53.490Z,99696.03
2023-01-10T11:15:39.696Z,99702.41
2023-01-10T11:18:15.279Z,99706.72
2023-01-10T11:20:57.927Z,99703.75
2023-01-10T11:23:40.060Z,99709.53
2023-01-10T11:26:12.287Z,99716.78
2023-01-10T11:28:45.902Z,99707.97
2023-01-10T11:31:15.522Z,99709.47
2023-01-10T11:33:45.278Z,99712.31
2023-01-10T11:36:15.969Z,99703.78
2023-01-10T11:38:45.682Z,99710.38
2023-01-10T11:41:31.692Z,99719.72
2023-01-10T11:44:19.326Z,99723.47
2023-01-10T11:46:51.204Z,99732.09
2023-01-10T11:49:30.504Z,99728.25
2023-01-10T11:52:06.185Z,99717.81
2023-01-10T11:54:36.430Z,99718.59
2023-01-10T11:57:11.226Z,99721.88
2023-01-10T11:59:54.037Z,99718.25
2023-01-10T12:02:27.398Z,99716.25
2023-01-10T12:04:59.717Z,99715.41
2023-01-10T12:07:29.705Z,99720.59
2023-01-10T12:10:01.062Z,99709.97
2023-01-10T12:12:32.519Z,99709.03
2023-01-10T12:15:24.816Z,99714.47
2023-01-10T12:17:55.343Z,99712.69
2023-01-10T12:20:25.901Z,99706.06
2023-01-10T12:23:00.992Z,99709.38
2023-01-10T12:25:37.223Z,99697.75
2023-01-10T12:28:07.491Z,99700.38
2023-01-10T12:30:44.630Z,99710.91
2023-01-10T12:33:18.377Z,99711.63
2023-01-10T12:35:53.124Z,99712.69
2023-01-10T12:38:43.176Z,99719.34
2023-01-10T12:41:36.523Z,99714.94
2023-01-10T12:44:12.247Z,99730.69
2023-01-10T12:47:08.709Z,99731.50
2023-01-10T12:49:47.385Z,99727.38
2023-01-10T12:52:23.374Z,99722.38
2023-01-10T12:54:53.169Z,99717.06
2023-01-10T12:57:30.637Z,99718.84
2023-01-10T13:00:03.680Z,99715.53
2023-01-10T13:02:44.144Z,99717.88
2023-01-10T13:05:21.439Z,99721.56
2023-01-10T13:07:52.667Z,99716.94
2023-01-10T13:10:24.819Z,99717.50
2023-01-10T13:13:00.395Z,99724.63
2023-01-10T13:15:33.129Z,99728.91
2023-01-10T13:18:15.710Z,99724.75
2023-01-10T13:20:46.371Z,99727.00
2023-01-10T13:23:24.028Z,99732.56
2023-01-10T13:25:58.947Z,99727.25
2023-01-10T13:28:30.629Z,99727.84
2023-01-10T13:31:02.609Z,99719.91
2023-01-10T13:33:40.315Z,99720.50
2023-01-10T13:36:14.717Z,99726.53
2023-01-10T13:38:52.453Z,99720.16
2023-01-10T13:41:35.444Z,99719.44
2023-01-10T13:44:11.416Z,99718.44
2023-01-10T13:46:46.668Z,99712.63
2023-01-10T13:49:46.644Z,99719.34
2023-01-10T13:52:40.644Z,99724.66
2023-01-10T13:55:29.087Z,99718.34
2023-01-10T13:58:00.718Z,99724.47
2023-01-10T14:01:13.721Z,99718.31
2023-01-10T14:03:50.949Z,99721.19
2023-01-10T14:06:41.221Z,99723.34
2023-01-10T14:09:38.425Z,99729.13
2023-01-10T14:12:19.640Z,99728.78
2023-01-10T14:14:56.717Z,99737.53
2023-01-10T14:17:29.287Z,99739.56
2023-01-10T14:20:06.599Z,99733.88
2023-01-10T14:22:40.570Z,99735.19
2023-01-10T14:25:22.209Z,99727.56
2023-01-10T14:27:54.334Z,99731.13
2023-01-10T14:30:28.759Z,99736.75
2023-01-10T14:33:02.751Z,99739.47
2023-01-10T14:35:39.011Z,99734.25
2023-01-10T14:38:19.971Z,99736.84
2023-01-10T14:40:52.910Z,99740.41
2023-01-10T14:43:26.946Z,99743.91
2023-01-10T14:46:03.737Z,99743.56
2023-01-10T14:48:35.655Z,99749.47
2023-01-10T14:51:18.444Z,99744.59
2023-01-10T14:53:57.358Z,99747.47
2023-01-10T14:56:29.813Z,99744.59
2023-01-10T14:58:59.421Z,99738.41
2023-01-10T15:01:31.194Z,99740.75
2023-01-10T15:04:02.923Z,99746.31
2023-01-10T15:06:32.567Z,99740.50
2023-01-10T15:09:07.536Z,99736.47
2023-01-10T15:11:37.382Z,99726.44
2023-01-10T15:14:11.076Z,99722.06
2023-01-10T15:16:43.157Z,99725.69
2023-01-10T15:19:16.663Z,99714.72
2023-01-10T15:21:47.751Z,99714.34
2023-01-10T15:24:35.373Z,99714.44
2023-01-10T15:27:08.787Z,99709.31
2023-01-10T15:29:44.486Z,99693.09
2023-01-10T15:32:15.097Z,99705.84
2023-01-10T15:34:44.956Z,99702.06
2023-01-10T15:37:22.622Z,99701.09
2023-01-10T15:39:57.399Z,99701.59
2023-01-10T15:42:27.350Z,99697.09
2023-01-10T15:44:57.399Z,99700.13
2023-01-10T15:47:44.606Z,99691.03
2023-01-10T15:50:27.022Z,99693.59
2023-01-10T15:52:58.836Z,99686.84
2023-01-10T15:55:43.718Z,99690.06
2023-01-10T15:58:21.611Z,99682.41
2023-01-10T16:00:54.462Z,99686.69
2023-01-10T16:03:28.849Z,99680.97
2023-01-10T16:06:00.756Z,99677.25
2023-01-10T16:08:34.884Z,99665.78
2023-01-10T16:11:09.930Z,99671.59
2023-01-10T16:13:37.528Z,99668.63
2023-01-10T16:16:24.215Z,99677.09
2023-01-10T16:18:53.827Z,99668.78
2023-01-10T16:21:23.522Z,99672.78
2023-01-10T16:23:53.635Z,99662.00
2023-01-10T16:26:25.870Z,99668.44
2023-01-10T16:28:55.406Z,99666.91
2023-01-10T16:31:24.963Z,99670.38
2023-01-10T16:33:54.735Z,99662.03
2023-01-10T16:36:24.366Z,99658.38
2023-01-10T16:38:53.962Z,99663.63
2023-01-10T16:41:38.618Z,99660.13
2023-01-10T16:44:08.226Z,99665.78
2023-01-10T16:46:38.203Z,99657.03
2023-01-10T16:49:07.923Z,99654.44
2023-01-10T16:51:42.176Z,99657.19
2023-01-10T16:54:19.657Z,99650.34
2023-01-10T16:56:52.523Z,99648.59
2023-01-10T16:59:22.258Z,99652.31
2023-01-10T17:01:55.936Z,99644.41
2023-01-10T17:04:29.949Z,99634.13
2023-01-10T17:07:00.242Z,99634.22
2023-01-10T17:09:31.937Z,99629.09
2023-01-10T17:12:08.471Z,99636.38
2023-01-10T17:14:39.365Z,99631.84
2023-01-10T17:17:08.935Z,99633.78
2023-01-10T17:19:39.485Z,99619.56
2023-01-10T17:22:09.045Z,99616.91
2023-01-10T17:24:38.591Z,99607.34
2023-01-10T17:27:10.806Z,99613.22
2023-01-10T17:29:40.755Z,99611.59
2023-01-10T17:32:11.554Z,99598.91
2023-01-10T17:34:41.152Z,99609.16
2023-01-10T17:37:10.789Z,99598.97
2023-01-10T17:39:40.501Z,99608.38
2023-01-10T17:42:13.055Z,99604.75
2023-01-10T17:44:42.656Z,99604.41
2023-01-10T17:47:12.263Z,99601.66
2023-01-10T17:49:42.021Z,99592.53
2023-01-10T17:52:12.293Z,99586.13
2023-01-10T17:54:42.294Z,99573.19
2023-01-10T17:57:14.994Z,99569.38
2023-01-10T17:59:44.671Z,99561.84
2023-01-10T18:02:19.757Z,99570.88
2023-01-10T18:04:49.430Z,99557.38
2023-01-10T18:07:18.978Z,99561.75
2023-01-10T18:09:48.565Z,99558.78
2023-01-10T18:12:20.725Z,99563.06
2023-01-10T18:14:50.940Z,99559.84
2023-01-10T18:17:20.924Z,99557.44
2023-01-10T18:19:50.732Z,99554.19
2023-01-10T18:22:33.095Z,99550.59
2023-01-10T18:25:02.944Z,99548.09
2023-01-10T18:27:36.212Z,99540.41
2023-01-10T18:30:06.830Z,99543.34
2023-01-10T18:32:36.379Z,99527.06
2023-01-10T18:35:06.624Z,99540.59
2023-01-10T18:37:36.575Z,99536.72
2023-01-10T18:40:06.922Z,99540.00
2023-01-10T18:42:39.068Z,99526.22
2023-01-10T18:45:09.656Z,99527.50
2023-01-10T18:47:39.266Z,99518.03
2023-01-10T18:50:09.309Z,99519.56
2023-01-10T18:52:38.903Z,99513.91
2023-01-10T18:55:09.743Z,99530.31
2023-01-10T18:57:41.956Z,99520.06
2023-01-10T19:00:13.247Z,99517.00
2023-01-10T19:02:42.903Z,99514.94
2023-01-10T19:05:12.582Z,99506.50
2023-01-10T19:07:42.308Z,99496.81
2023-01-10T19:10:13.551Z,99499.03
2023-01-10T19:12:45.710Z,99483.81
2023-01-10T19:15:16.429Z,99479.09
2023-01-10T19:17:46.005Z,99478.31
2023-01-10T19:20:15.599Z,99474.00
2023-01-10T19:22:47.515Z,99460.06
2023-01-10T19:25:17.209Z,99461.03
2023-01-10T19:27:49.368Z,99460.53
2023-01-10T19:30:19.560Z,99460.38
2023-01-10T19:32:49.077Z,99465.16
2023-01-10T19:35:18.699Z,99455.25
2023-01-10T19:37:48.963Z,99460.06
2023-01-10T19:40:18.612Z,99449.44
2023-01-10T19:42:50.710Z,99453.13
2023-01-10T19:45:20.515Z,99439.00
2023-01-10T19:47:50.184Z,99452.66
2023-01-10T19:50:20.208Z,99428.31
2023-01-10T19:52:49.784Z,99425.53
2023-01-10T19:55:19.456Z,99426.09
2023-01-10T19:57:51.613Z,99428.31
2023-01-10T20:00:21.989Z,99424.63
2023-01-10T20:02:51.648Z,99433.31
2023-01-10T20:05:21.374Z,99429.69
2023-01-10T20:07:51.420Z,99435.75
2023-01-10T20:10:21.707Z,99436.16
2023-01-10T20:12:53.853Z,99430.38
2023-01-10T20:15:23.437Z,99427.53
2023-01-10T20:17:53.082Z,99434.69
2023-01-10T20:20:23.609Z,99445.41
2023-01-10T20:22:53.166Z,99425.47
2023-01-10T20:25:22.888Z,99426.19
2023-01-10T20:27:55.402Z,99422.75
2023-01-10T20:30:24.939Z,99416.16
2023-01-10T20:32:54.736Z,99409.06
2023-01-10T20:35:24.653Z,99406.34
2023-01-10T20:37:54.329Z,99408.28
2023-01-10T20:40:26.099Z,99405.31
2023-01-10T20:42:58.198Z,99415.47
2023-01-10T20:45:27.836Z,99418.06
2023-01-10T20:47:57.386Z,99406.03
2023-01-10T20:50:26.918Z,99401.59
2023-01-10T20:52:56.501Z,99399.09
2023-01-10T20:55:26.143Z,99401.97
2023-01-10T20:57:58.249Z,99419.00
2023-01-10T21:00:28.065Z,99406.19
2023-01-10T21:02:57.717Z,99407.59
2023-01-10T21:05:27.318Z,99407.09
2023-01-10T21:07:56.824Z,99401.31
2023-01-10T21:10:26.509Z,99394.03
2023-01-10T21:12:58.894Z,99391.50
2023-01-10T21:15:28.472Z,99387.41
2023-01-10T21:17:58.104Z,99379.63
2023-01-10T21:20:28.012Z,99363.66
2023-01-10T21:23:00.386Z,99371.91
2023-01-10T21:25:30.076Z,99370.78
2023-01-10T21:28:02.189Z,99359.16
2023-01-10T21:30:31.734Z,99356.56
2023-01-10T21:33:02.581Z,99336.13
2023-01-10T21:35:32.162Z,99318.44
2023-01-10T21:38:02.234Z,99315.75
2023-01-10T21:40:32.367Z,99306.75
2023-01-10T21:43:05.249Z,99307.00
2023-01-10T21:45:36.816Z,99302.69
2023-01-10T21:48:06.792Z,99291.63
2023-01-10T21:50:36.401Z,99284.34
2023-01-10T21:53:06.153Z,99268.78
2023-01-10T21:55:36.537Z,99272.56
2023-01-10T21:58:08.697Z,99266.69
2023-01-10T22:00:38.315Z,99262.28
2023-01-10T22:03:07.964Z,99252.63
2023-01-10T22:05:37.639Z,99252.75
2023-01-10T22:08:07.893Z,99229.38
2023-01-10T22:10:37.447Z,99207.56
2023-01-10T22:13:09.599Z,99194.69
2023-01-10T22:15:41.163Z,99179.94
2023-01-10T22:18:11.464Z,99159.63
2023-01-10T22:20:41.003Z,99170.47
2023-01-10T22:23:10.572Z,99174.28
2023-01-10T22:25:40.212Z,99176.63
2023-01-10T22:28:12.472Z,99182.88
2023-01-10T22:30:42.146Z,99187.13
2023-01-10T22:33:11.691Z,99199.63
2023-01-10T22:35:41.287Z,99205.66
2023-01-10T22:38:10.815Z,99196.19
2023-01-10T22:40:40.396Z,99203.44
2023-01-10T22:43:12.594Z,99186.31
2023-01-10T22:45:45.058Z,99173.91
2023-01-10T22:48:14.706Z,99172.13
2023-01-10T22:50:50.413Z,99164.69
2023-01-10T22:53:20.470Z,99159.03
2023-01-10T22:55:50.089Z,99144.88
2023-01-10T22:58:22.966Z,99138.63
2023-01-10T23:00:52.805Z,99137.09
2023-01-10T23:03:22.571Z,99123.31
2023-01-10T23:05:57.363Z,99139.94
2023-01-10T23:08:27.242Z,99113.84
2023-01-10T23:10:57.037Z,99102.91
2023-01-10T23:13:29.819Z,99107.88
2023-01-10T23:15:59.937Z,99094.63
2023-01-10T23:18:30.425Z,99093.00
2023-01-10T23:21:00.485Z,99093.22
2023-01-10T23:23:30.693Z,99108.56
2023-01-10T23:26:06.488Z,99120.59
2023-01-10T23:28:39.647Z,99122.47
2023-01-10T23:31:10.218Z,99116.44
2023-01-10T23:33:39.797Z,99131.22
2023-01-10T23:36:10.497Z,99120.72
2023-01-10T23:38:40.259Z,99116.56
2023-01-10T23:41:10.017Z,99133.22
2023-01-10T23:43:42.620Z,99118.72
2023-01-10T23:46:12.362Z,99108.09
2023-01-10T23:48:43.261Z,99116.56
2023-01-10T23:51:12.845Z,99100.53
2023-01-10T23:53:43.385Z,99096.50
2023-01-10T23:56:15.194Z,99104.56
2023-01-10T23:58:47.330Z,99098.78
